DTMB/MIR METAR and TAF weather

Enter ICAO airport designator
Station Type Date Time Source
DTMB METAR 2019/06/18 12:30 UTC NOAA

DTMB 181230Z 02009KT CAVOK 26/17 Q1015


Station Type Date Time Source
DTMB Decoded METAR 2019/06/18 12:30 UTC NOAA

Habib Bourguiba , Tunisia (DTMB) 35-46N 010-45E
Jun 18, 2019 - 08:30 AM EDT / 2019.06.18 1230 UTC
Wind: from the NNE (020 degrees) at 10 MPH (9 KT):0
Visibility: greater than 7 mile(s):0
Temperature: 78 F (26 C)
Dew Point: 62 F (17 C)
Relative Humidity: 57%
Pressure (altimeter): 29.97 in. Hg (1015 hPa)
ob: DTMB 181230Z 02009KT CAVOK 26/17 Q1015
cycle: 12

Station Type Date Time Source
DTMB TAF 2019/06/18 12:27 UTC NOAA

TAF TAF DTMB 181100Z 1812/1912 35010KT CAVOK
BECMG 1812/1814 09012KT 9999 FEW026
BECMG 1818/1820 10006KT
BECMG 1822/1824 VRB03KT
BECMG 1907/1909 09010KT 9999 FEW020

Example: see airport list